Time;durP1;ratioP1;P1;durP2;ratioP2;P2;SDS_P1;SDS_P2;PMS_P1;PMS_P2;Temp;Humidity;BMP_temperature;BMP_pressure;BME280_temperature;BME280_humidity;BME280_pressure;Samples;Min_cycle;Max_cycle;Signal;HPM_P1;HPM_P2
2022/03/01 00:01:34;;;;;;;5.87;4.53;;;4.70;49.90;3.90;97611.00;;;;5053613;28;20475;-85
2022/03/01 00:04:03;;;;;;;6.13;4.70;;;4.10;49.50;3.90;97628.00;;;;5053406;28;20530;-88
2022/03/01 00:06:30;;;;;;;6.53;4.87;;;4.10;49.50;3.90;97630.00;;;;5054379;28;20288;-87
2022/03/01 00:08:57;;;;;;;6.77;4.63;;;5.60;50.30;3.80;97627.00;;;;5054189;28;21101;-88
2022/03/01 00:11:24;;;;;;;6.00;4.50;;;4.00;49.50;3.90;97625.00;;;;5054309;28;20440;-87
2022/03/01 00:13:52;;;;;;;5.87;4.50;;;4.10;49.50;3.90;97633.00;;;;5057996;28;20503;-87
2022/03/01 00:16:20;;;;;;;5.47;4.53;;;4.00;49.50;3.90;97612.00;;;;5057726;28;20478;-86
2022/03/01 00:18:47;;;;;;;6.17;4.77;;;4.80;49.90;3.80;97611.00;;;;5056865;28;20316;-88
2022/03/01 00:21:16;;;;;;;7.40;5.07;;;4.20;49.60;3.70;97626.00;;;;5055971;28;20477;-87
2022/03/01 00:23:43;;;;;;;6.87;5.10;;;4.00;49.50;3.70;97633.00;;;;5041617;28;20818;-87
2022/03/01 00:26:11;;;;;;;5.00;4.37;;;4.00;49.60;3.70;97615.00;;;;5045432;28;20203;-87
2022/03/01 00:28:38;;;;;;;6.20;4.97;;;4.00;49.60;3.70;97611.00;;;;5053684;28;20296;-86
2022/03/01 00:31:05;;;;;;;5.53;4.43;;;5.20;50.30;3.70;97616.00;;;;5052511;28;20891;-87
2022/03/01 00:33:32;;;;;;;6.83;5.03;;;4.40;50.00;3.70;97632.00;;;;5052522;28;20700;-87
2022/03/01 00:36:00;;;;;;;5.23;4.30;;;3.90;49.80;3.60;97617.00;;;;5052777;28;20276;-87
2022/03/01 00:38:28;;;;;;;4.87;4.37;;;3.80;49.80;3.60;97626.00;;;;5052584;28;20481;-87
2022/03/01 00:40:56;;;;;;;6.07;4.67;;;3.80;49.90;3.60;97628.00;;;;5051814;28;20485;-88
2022/03/01 00:43:24;;;;;;;5.87;4.47;;;3.80;49.90;3.50;97628.00;;;;5052247;28;20447;-87
2022/03/01 00:45:53;;;;;;;5.43;4.30;;;3.80;50.00;3.50;97604.00;;;;5052440;28;20746;-86
2022/03/01 00:48:21;;;;;;;7.33;4.47;;;3.80;50.00;3.50;97615.00;;;;5052764;28;20302;-86
2022/03/01 00:50:49;;;;;;;6.20;4.50;;;3.30;49.80;3.50;97614.00;;;;5052273;28;20435;-87
2022/03/01 00:53:17;;;;;;;5.73;4.50;;;4.10;50.30;3.40;97616.00;;;;5052476;28;20514;-87
2022/03/01 00:55:45;;;;;;;5.63;4.30;;;3.70;50.30;3.40;97603.00;;;;5052309;28;20450;-87
2022/03/01 00:58:12;;;;;;;5.20;4.10;;;3.60;50.10;3.40;97584.00;;;;5052365;28;20512;-86
2022/03/01 01:00:39;;;;;;;6.63;4.47;;;3.60;50.20;3.30;97599.00;;;;5052448;28;20475;-87
2022/03/01 01:03:07;;;;;;;5.90;4.10;;;3.60;50.20;3.30;97605.00;;;;5052515;28;20471;-87
2022/03/01 01:05:34;;;;;;;6.10;4.20;;;3.60;50.30;3.30;97592.00;;;;5052629;28;20449;-86
2022/03/01 01:08:01;;;;;;;5.17;4.27;;;3.50;50.20;3.20;97581.00;;;;5052729;28;20489;-87
2022/03/01 01:10:29;;;;;;;5.87;4.30;;;4.00;50.50;3.20;97604.00;;;;5052204;28;20518;-87
2022/03/01 01:13:00;;;;;;;5.60;3.90;;;3.50;50.30;3.20;97582.00;;;;5052666;28;20937;-86
2022/03/01 01:15:27;;;;;;;5.90;3.87;;;4.40;50.80;3.20;97571.00;;;;5053071;28;20461;-87
2022/03/01 01:17:54;;;;;;;4.03;3.63;;;3.50;50.40;3.10;97581.00;;;;5052678;28;20509;-86
2022/03/01 01:20:22;;;;;;;4.73;4.23;;;3.20;50.40;3.10;97572.00;;;;5052280;28;20498;-87
2022/03/01 01:22:49;;;;;;;4.63;4.03;;;3.30;50.50;3.10;97586.00;;;;5047519;28;20498;-87
2022/03/01 01:25:22;;;;;;;4.60;3.87;;;3.30;50.50;3.00;97571.00;;;;5055076;28;20435;-86
2022/03/01 01:27:52;;;;;;;4.20;3.70;;;3.30;50.60;3.00;97572.00;;;;5052251;28;21238;-87
2022/03/01 01:30:25;;;;;;;5.17;3.67;;;3.30;50.50;3.00;97571.00;;;;5055792;28;20434;-87
2022/03/01 01:32:52;;;;;;;3.13;2.80;;;3.20;50.50;3.00;97563.00;;;;5056049;28;20431;-88
2022/03/01 01:35:25;;;;;;;3.87;3.37;;;3.60;50.70;3.00;97574.00;;;;5035624;28;20435;-86
2022/03/01 01:37:54;;;;;;;3.90;3.27;;;4.20;51.00;3.00;97566.00;;;;5048143;28;20455;-88
2022/03/01 01:40:25;;;;;;;3.37;2.93;;;3.20;50.60;3.00;97572.00;;;;5055219;28;20509;-87
2022/03/01 01:42:52;;;;;;;3.77;2.90;;;3.30;50.70;3.00;97574.00;;;;5055605;28;20454;-86
2022/03/01 01:45:22;;;;;;;3.13;2.83;;;3.20;50.60;3.00;97569.00;;;;5055725;28;20527;-86
2022/03/01 01:47:53;;;;;;;3.93;2.67;;;3.30;50.60;3.00;97566.00;;;;5055434;28;20455;-87
2022/03/01 01:50:26;;;;;;;5.43;3.33;;;3.40;50.70;3.00;97566.00;;;;5055884;28;20427;-86
2022/03/01 01:52:55;;;;;;;4.60;2.90;;;3.40;50.70;3.00;97563.00;;;;5054976;28;20980;-86
2022/03/01 01:55:24;;;;;;;4.70;3.23;;;3.60;51.40;3.00;97556.00;;;;5055038;28;20441;-87
2022/03/01 01:57:51;;;;;;;3.10;2.80;;;3.20;50.70;2.90;97556.00;;;;5055046;28;20550;-87
2022/03/01 02:00:20;;;;;;;4.43;3.30;;;3.20;50.70;2.90;97548.00;;;;5054697;28;21006;-88
2022/03/01 02:02:47;;;;;;;4.03;3.30;;;3.20;50.70;2.90;97557.00;;;;5054787;28;20475;-87
2022/03/01 02:05:15;;;;;;;4.67;3.13;;;3.20;50.80;2.90;97548.00;;;;5054568;28;20933;-87
2022/03/01 02:07:48;;;;;;;3.50;3.20;;;3.20;50.80;2.90;97553.00;;;;5054817;28;20459;-87
2022/03/01 02:10:16;;;;;;;3.47;2.93;;;3.50;51.10;2.90;97552.00;;;;5036368;28;21015;-86
2022/03/01 02:12:44;;;;;;;4.77;3.23;;;3.10;50.80;2.80;97536.00;;;;5034640;28;20444;-87
2022/03/01 02:15:12;;;;;;;4.43;3.30;;;3.10;50.70;2.80;97540.00;;;;5052956;28;20783;-87
2022/03/01 02:17:42;;;;;;;4.23;3.20;;;3.10;50.80;2.80;97534.00;;;;5054183;28;20451;-87
2022/03/01 02:20:17;;;;;;;3.83;2.97;;;3.80;51.20;2.80;97533.00;;;;5054353;28;20439;-87
2022/03/01 02:22:45;;;;;;;4.70;2.97;;;3.10;51.00;2.80;97534.00;;;;5054477;28;20482;-87
2022/03/01 02:25:13;;;;;;;4.10;3.13;;;3.00;50.90;2.70;97529.00;;;;5054614;28;20493;-87
2022/03/01 02:27:41;;;;;;;4.47;3.00;;;3.00;50.90;2.70;97540.00;;;;5054126;28;21259;-88
2022/03/01 02:30:10;;;;;;;3.43;3.03;;;3.60;51.30;2.70;97532.00;;;;5101104;22;20588;-90
2022/03/01 02:32:38;;;;;;;4.40;2.77;;;3.00;50.90;2.70;97531.00;;;;5090822;28;20484;-90
2022/03/01 02:35:07;;;;;;;3.67;2.77;;;2.90;51.00;2.70;97533.00;;;;5086831;28;20430;-88
2022/03/01 02:37:36;;;;;;;3.13;2.83;;;2.90;51.00;2.60;97527.00;;;;5094403;28;20892;-90
2022/03/01 02:40:06;;;;;;;4.10;3.23;;;2.90;51.10;2.60;97527.00;;;;5090298;28;20539;-87
2022/03/01 02:42:33;;;;;;;4.67;3.27;;;2.90;51.10;2.60;97531.00;;;;5074636;28;20486;-90
2022/03/01 02:45:00;;;;;;;4.53;3.33;;;2.90;51.20;2.60;97533.00;;;;5073529;28;20442;-83
2022/03/01 02:47:27;;;;;;;4.27;3.07;;;2.90;51.30;2.60;97531.00;;;;5073975;28;20775;-88
2022/03/01 02:49:54;;;;;;;3.43;3.07;;;2.90;51.40;2.50;97523.00;;;;5074710;28;21018;-87
2022/03/01 02:52:22;;;;;;;3.87;2.87;;;2.90;51.40;2.50;97520.00;;;;5073032;28;20974;-89
2022/03/01 02:54:50;;;;;;;3.73;3.00;;;3.00;51.50;2.50;97524.00;;;;5074842;28;20435;-89
2022/03/01 02:57:17;;;;;;;3.33;2.60;;;2.80;51.50;2.50;97531.00;;;;5069495;28;20830;-89
2022/03/01 02:59:45;;;;;;;3.33;2.90;;;2.80;51.50;2.50;97523.00;;;;5068593;28;20453;-88
2022/03/01 03:02:15;;;;;;;4.70;3.43;;;2.80;51.50;2.50;97532.00;;;;5064202;28;20477;-88
2022/03/01 03:04:42;;;;;;;4.57;2.90;;;2.70;51.50;2.50;97525.00;;;;5058807;28;20435;-88
2022/03/01 03:07:10;;;;;;;4.10;3.20;;;2.70;51.50;2.40;97525.00;;;;5079173;28;20445;-89
2022/03/01 03:09:37;;;;;;;3.43;3.13;;;2.70;51.60;2.40;97522.00;;;;5074759;28;20460;-89
2022/03/01 03:12:08;;;;;;;4.83;3.33;;;2.70;51.70;2.40;97525.00;;;;5086180;28;20963;-87
2022/03/01 03:14:35;;;;;;;3.77;3.10;;;2.70;51.90;2.40;97515.00;;;;5085787;28;20445;-88
2022/03/01 03:17:03;;;;;;;4.53;3.27;;;2.60;51.90;2.40;97520.00;;;;5078571;28;20441;-86
2022/03/01 03:19:30;;;;;;;4.80;3.30;;;2.60;51.90;2.30;97505.00;;;;5072508;28;20466;-88
2022/03/01 03:21:57;;;;;;;3.70;3.13;;;2.60;52.00;2.30;97520.00;;;;5067769;28;20484;-87
2022/03/01 03:24:24;;;;;;;3.43;3.10;;;2.60;52.00;2.30;97512.00;;;;5082817;28;20516;-88
2022/03/01 03:26:51;;;;;;;3.70;3.00;;;2.50;51.90;2.30;97518.00;;;;5065171;28;20529;-88
2022/03/01 03:29:20;;;;;;;3.93;3.20;;;2.60;52.00;2.30;97512.00;;;;5071845;28;20476;-89
2022/03/01 03:31:47;;;;;;;3.80;3.00;;;2.60;52.00;2.20;97510.00;;;;5078274;28;20437;-90
2022/03/01 03:34:14;;;;;;;4.73;3.10;;;2.50;52.00;2.20;97515.00;;;;5071276;28;20941;-90
2022/03/01 03:36:43;;;;;;;4.90;3.37;;;2.50;52.10;2.20;97497.00;;;;5082246;28;20433;-89
2022/03/01 03:39:12;;;;;;;3.40;3.00;;;2.50;52.30;2.20;97500.00;;;;5078467;28;20832;-89
2022/03/01 03:41:40;;;;;;;3.57;2.73;;;2.50;52.30;2.20;97514.00;;;;5073228;28;20577;-87
2022/03/01 03:44:08;;;;;;;4.53;3.00;;;2.50;52.40;2.20;97510.00;;;;5072266;28;20441;-89
2022/03/01 03:46:37;;;;;;;3.17;2.70;;;2.40;52.40;2.20;97505.00;;;;5071280;28;20810;-88
2022/03/01 03:49:06;;;;;;;4.73;3.33;;;2.40;52.40;2.10;97512.00;;;;5068769;28;21015;-89
2022/03/01 03:51:33;;;;;;;3.50;3.20;;;2.40;52.40;2.10;97512.00;;;;5066420;28;20501;-88
2022/03/01 03:54:00;;;;;;;4.00;3.50;;;2.40;52.50;2.10;97499.00;;;;5067176;28;20514;-89
2022/03/01 03:56:27;;;;;;;3.90;2.83;;;2.40;52.50;2.10;97496.00;;;;5068085;28;21108;-89
2022/03/01 03:58:57;;;;;;;3.50;2.80;;;2.30;52.50;2.00;97495.00;;;;5066926;28;20839;-88
2022/03/01 04:01:25;;;;;;;3.07;2.77;;;2.30;52.60;2.00;97488.00;;;;5064762;28;21256;-90
2022/03/01 04:03:53;;;;;;;4.53;3.00;;;2.30;52.70;2.00;97495.00;;;;5073409;28;20801;-87
2022/03/01 04:06:20;;;;;;;5.40;3.40;;;2.30;52.70;2.00;97495.00;;;;5074499;28;20457;-89
2022/03/01 04:08:47;;;;;;;3.43;2.87;;;2.30;52.80;2.00;97499.00;;;;5060593;28;20442;-90
2022/03/01 04:11:14;;;;;;;4.97;3.10;;;2.30;52.80;2.00;97493.00;;;;5063803;28;20517;-87
2022/03/01 04:13:41;;;;;;;4.60;3.10;;;2.30;53.40;1.90;97495.00;;;;5064125;28;20450;-88
2022/03/01 04:16:08;;;;;;;3.67;2.83;;;2.20;52.80;1.90;97496.00;;;;5068463;28;20947;-86
2022/03/01 04:18:35;;;;;;;3.30;2.80;;;2.20;52.80;1.90;97489.00;;;;5074243;28;20828;-87
2022/03/01 04:21:04;;;;;;;4.03;3.20;;;2.60;53.10;1.90;97497.00;;;;5075952;28;20570;-86
2022/03/01 04:23:32;;;;;;;5.10;3.40;;;2.20;53.00;1.80;97483.00;;;;5074519;28;20508;-88
2022/03/01 04:25:59;;;;;;;3.37;2.73;;;2.10;52.90;1.80;97487.00;;;;5068275;28;20449;-88
2022/03/01 04:28:26;;;;;;;4.20;3.43;;;2.10;53.00;1.80;97481.00;;;;5057983;28;20441;-91
2022/03/01 04:30:54;;;;;;;4.27;2.90;;;2.10;53.00;1.80;97479.00;;;;5070913;28;20557;-89
2022/03/01 04:33:21;;;;;;;3.80;3.10;;;2.10;53.10;1.80;97474.00;;;;5079410;28;20445;-87
2022/03/01 04:35:49;;;;;;;4.57;3.23;;;2.10;53.20;1.70;97479.00;;;;5071058;28;20439;-90
2022/03/01 04:38:18;;;;;;;3.57;3.03;;;2.10;53.20;1.70;97468.00;;;;5068648;28;20530;-89
2022/03/01 04:40:45;;;;;;;3.43;3.10;;;2.10;53.40;1.70;97461.00;;;;5059105;28;20484;-87
2022/03/01 04:43:12;;;;;;;4.00;3.40;;;2.00;53.30;1.70;97463.00;;;;5065919;28;20497;-87
2022/03/01 04:45:40;;;;;;;3.47;2.87;;;2.00;53.40;1.70;97466.00;;;;5065114;28;20458;-86
2022/03/01 04:48:07;;;;;;;5.07;3.50;;;2.00;53.40;1.70;97468.00;;;;5070407;28;20446;-86
2022/03/01 04:50:34;;;;;;;4.47;2.97;;;2.00;53.30;1.70;97466.00;;;;5064875;28;20484;-88
2022/03/01 04:53:01;;;;;;;3.73;3.10;;;2.40;53.70;1.70;97462.00;;;;5077909;28;20443;-88
2022/03/01 04:55:30;;;;;;;5.30;3.00;;;2.00;53.60;1.70;97463.00;;;;5064424;28;20983;-88
2022/03/01 04:57:57;;;;;;;4.00;3.20;;;2.00;53.60;1.70;97449.00;;;;5070668;28;20821;-88
2022/03/01 05:00:24;;;;;;;3.37;2.87;;;2.00;53.80;1.70;97463.00;;;;5070425;28;20489;-87
2022/03/01 05:02:51;;;;;;;3.17;2.87;;;2.00;53.80;1.70;97450.00;;;;5075238;28;20486;-88
2022/03/01 05:05:18;;;;;;;3.43;2.60;;;2.00;53.90;1.70;97452.00;;;;5072371;28;20979;-87
2022/03/01 05:07:47;;;;;;;3.93;3.30;;;2.00;53.80;1.70;97472.00;;;;5086784;28;20450;-88
2022/03/01 05:10:17;;;;;;;3.53;2.90;;;1.90;53.80;1.70;97458.00;;;;5075786;28;20462;-89
2022/03/01 05:12:49;;;;;;;3.70;3.00;;;1.90;53.80;1.70;97468.00;;;;5075342;28;20890;-88
2022/03/01 05:15:17;;;;;;;5.33;2.80;;;2.00;53.90;1.70;97462.00;;;;5074944;28;20492;-90
2022/03/01 05:17:45;;;;;;;3.77;2.87;;;2.00;53.90;1.70;97464.00;;;;5079491;28;20550;-89
2022/03/01 05:20:16;;;;;;;4.57;2.83;;;2.00;53.90;1.70;97462.00;;;;5071759;28;20461;-86
2022/03/01 05:22:44;;;;;;;4.03;3.33;;;2.00;53.80;1.70;97464.00;;;;5067436;28;20474;-88
2022/03/01 05:25:16;;;;;;;4.07;3.00;;;2.80;54.20;1.70;97471.00;;;;5066481;28;20450;-88
2022/03/01 05:27:47;;;;;;;3.47;2.80;;;2.00;53.90;1.70;97472.00;;;;5066441;28;21255;-88
2022/03/01 05:30:17;;;;;;;3.37;3.00;;;2.00;53.80;1.70;97475.00;;;;5075820;28;20924;-88
2022/03/01 05:32:47;;;;;;;4.97;3.37;;;2.00;53.80;1.70;97479.00;;;;5079266;28;20457;-89
2022/03/01 05:35:16;;;;;;;4.40;2.97;;;2.00;53.80;1.70;97479.00;;;;5074158;28;20478;-87
2022/03/01 05:37:44;;;;;;;4.03;3.63;;;2.00;53.70;1.70;97480.00;;;;5094557;28;20444;-88
2022/03/01 05:40:13;;;;;;;3.83;3.20;;;2.00;53.70;1.70;97480.00;;;;5086549;28;20830;-87
2022/03/01 05:42:40;;;;;;;4.17;2.80;;;2.00;53.80;1.70;97476.00;;;;5082576;28;20528;-88
2022/03/01 05:45:11;;;;;;;4.20;3.27;;;2.00;53.80;1.70;97483.00;;;;5074031;28;20460;-87
2022/03/01 05:47:38;;;;;;;5.47;3.30;;;2.00;53.70;1.60;97482.00;;;;5074842;28;20945;-88
2022/03/01 05:50:09;;;;;;;3.30;3.00;;;2.00;53.80;1.70;97486.00;;;;5080912;28;20453;-88
2022/03/01 05:52:36;;;;;;;3.43;3.03;;;2.00;53.80;1.70;97489.00;;;;5070155;28;20947;-88
2022/03/01 05:55:06;;;;;;;5.60;3.20;;;2.00;53.90;1.70;97492.00;;;;5081966;28;20529;-87
2022/03/01 05:57:33;;;;;;;5.67;3.23;;;2.00;53.90;1.70;97491.00;;;;5080262;28;20881;-86
2022/03/01 06:00:00;;;;;;;5.27;3.80;;;2.00;53.90;1.70;97495.00;;;;5078509;28;20454;-88
2022/03/01 06:02:28;;;;;;;5.20;3.20;;;2.00;54.00;1.70;97503.00;;;;5078328;28;20482;-88
2022/03/01 06:04:55;;;;;;;4.63;3.13;;;2.00;54.00;1.70;97499.00;;;;5075190;28;20445;-88
2022/03/01 06:07:22;;;;;;;3.40;3.10;;;2.00;53.90;1.70;97505.00;;;;5088971;28;20949;-88
2022/03/01 06:09:49;;;;;;;3.43;3.13;;;2.00;54.00;1.70;97502.00;;;;5077643;28;20451;-86
2022/03/01 06:12:16;;;;;;;4.23;3.50;;;2.00;53.80;1.70;97518.00;;;;5073703;28;20450;-88
2022/03/01 06:14:44;;;;;;;4.50;3.20;;;2.00;53.80;1.70;97503.00;;;;5080431;28;20434;-83
2022/03/01 06:17:11;;;;;;;4.43;3.13;;;2.00;53.90;1.70;97512.00;;;;5078514;28;20456;-88
2022/03/01 06:19:39;;;;;;;4.03;3.10;;;1.90;53.90;1.80;97510.00;;;;5065288;28;20462;-88
2022/03/01 06:22:07;;;;;;;6.37;3.53;;;2.00;54.00;1.80;97519.00;;;;5073487;28;21058;-87
2022/03/01 06:24:41;;;;;;;5.77;3.47;;;2.00;54.20;1.90;97523.00;;;;5072994;28;20442;-88
2022/03/01 06:27:08;;;;;;;6.30;3.70;;;2.00;54.10;1.90;97521.00;;;;5080072;28;20441;-88
2022/03/01 06:29:37;;;;;;;4.70;3.50;;;2.00;54.10;1.90;97520.00;;;;5081749;28;20465;-88
2022/03/01 06:32:06;;;;;;;4.10;3.03;;;2.10;54.20;2.00;97532.00;;;;5087335;28;20437;-88
2022/03/01 06:34:34;;;;;;;3.60;3.10;;;2.00;54.20;2.00;97532.00;;;;5081083;28;20477;-84
2022/03/01 06:37:03;;;;;;;4.67;3.30;;;2.10;54.30;2.00;97528.00;;;;5076163;28;20449;-87
2022/03/01 06:39:32;;;;;;;4.53;3.90;;;2.10;54.30;2.00;97536.00;;;;5085106;28;20461;-88
2022/03/01 06:42:00;;;;;;;4.10;2.93;;;2.10;54.30;2.00;97532.00;;;;5078958;28;20529;-87
2022/03/01 06:44:27;;;;;;;3.97;3.00;;;2.10;54.30;2.10;97531.00;;;;5083820;28;20441;-88
2022/03/01 06:46:54;;;;;;;4.73;3.40;;;2.10;54.30;2.10;97534.00;;;;5083403;28;20442;-87
2022/03/01 06:49:21;;;;;;;5.00;3.60;;;2.20;54.40;2.10;97536.00;;;;5073037;28;20823;-87
2022/03/01 06:51:48;;;;;;;3.67;3.20;;;2.20;54.40;2.10;97539.00;;;;5071207;28;20831;-88
2022/03/01 06:54:16;;;;;;;6.03;3.80;;;2.20;54.40;2.10;97540.00;;;;5080222;28;20449;-86
2022/03/01 06:56:46;;;;;;;4.00;3.27;;;2.20;54.50;2.10;97534.00;;;;5088143;28;20448;-87
2022/03/01 06:59:14;;;;;;;3.80;3.37;;;2.20;54.50;2.20;97541.00;;;;5077306;28;20473;-87
2022/03/01 07:01:41;;;;;;;3.70;3.13;;;2.20;54.60;2.20;97539.00;;;;5068423;28;20793;-87
2022/03/01 07:04:08;;;;;;;4.47;3.40;;;2.30;54.70;2.20;97550.00;;;;5079411;28;20995;-88
2022/03/01 07:06:35;;;;;;;3.53;3.23;;;3.50;55.20;2.20;97537.00;;;;5073954;28;20529;-87
2022/03/01 07:09:02;;;;;;;3.73;3.00;;;2.30;54.70;2.30;97541.00;;;;5083578;28;20457;-87
2022/03/01 07:11:31;;;;;;;4.57;3.93;;;2.30;54.70;2.30;97534.00;;;;5092681;28;20437;-87
2022/03/01 07:13:58;;;;;;;5.57;3.80;;;2.30;55.20;2.30;97541.00;;;;5083070;28;20472;-88
2022/03/01 07:16:25;;;;;;;5.90;3.50;;;2.40;54.80;2.40;97553.00;;;;5063855;28;20446;-86
2022/03/01 07:18:54;;;;;;;4.03;3.30;;;2.40;54.80;2.40;97557.00;;;;5079419;28;20442;-87
2022/03/01 07:21:21;;;;;;;4.03;3.30;;;2.40;54.70;2.40;97550.00;;;;5075056;28;20446;-86
2022/03/01 07:23:48;;;;;;;3.57;3.03;;;2.50;54.70;2.50;97551.00;;;;5069798;28;20490;-87
2022/03/01 07:26:16;;;;;;;4.33;3.37;;;2.50;54.70;2.50;97554.00;;;;5087345;28;20446;-86
2022/03/01 07:28:45;;;;;;;3.87;3.17;;;2.50;54.60;2.50;97559.00;;;;5085732;28;20485;-85
2022/03/01 07:31:11;;;;;;;4.57;3.57;;;2.60;54.70;2.60;97549.00;;;;5074349;28;20574;-87
2022/03/01 07:33:41;;;;;;;3.63;3.30;;;2.60;54.70;2.60;97551.00;;;;5068880;28;20785;-87
2022/03/01 07:36:08;;;;;;;8.20;3.40;;;2.60;54.60;2.70;97550.00;;;;5073375;28;20483;-84
2022/03/01 07:38:37;;;;;;;4.00;3.53;;;2.60;54.60;2.70;97553.00;;;;5073399;28;20830;-87
2022/03/01 07:41:04;;;;;;;6.63;3.60;;;2.70;54.70;2.70;97554.00;;;;5072229;28;20492;-86
2022/03/01 07:43:31;;;;;;;4.23;3.30;;;2.80;54.60;2.80;97552.00;;;;5070031;28;21014;-86
2022/03/01 07:45:59;;;;;;;6.13;3.30;;;2.80;54.70;2.90;97555.00;;;;5072596;28;20441;-87
2022/03/01 07:48:26;;;;;;;4.50;3.13;;;2.90;54.70;2.90;97555.00;;;;5064515;28;21199;-87
2022/03/01 07:50:53;;;;;;;5.57;3.27;;;2.90;54.60;3.00;97570.00;;;;5069289;28;20466;-87
2022/03/01 07:53:20;;;;;;;4.83;3.70;;;3.00;54.60;3.10;97561.00;;;;5075975;28;20442;-86
2022/03/01 07:55:50;;;;;;;4.67;3.20;;;3.10;54.40;3.10;97561.00;;;;5070543;28;20454;-86
2022/03/01 07:58:17;;;;;;;3.23;2.87;;;4.70;55.20;3.20;97556.00;;;;5070412;28;20438;-88
2022/03/01 08:00:44;;;;;;;4.37;3.20;;;3.20;54.40;3.30;97563.00;;;;5080755;28;20465;-87
2022/03/01 08:03:13;;;;;;;3.20;2.90;;;3.50;54.50;3.40;97561.00;;;;5069830;28;20482;-88
2022/03/01 08:05:41;;;;;;;3.47;3.00;;;3.40;54.30;3.50;97566.00;;;;5071650;28;20443;-88
2022/03/01 08:08:08;;;;;;;4.17;3.30;;;4.10;54.60;3.70;97569.00;;;;5074484;28;20651;-88
2022/03/01 08:10:35;;;;;;;3.30;3.00;;;3.60;54.30;3.80;97570.00;;;;5086691;28;20586;-88
2022/03/01 08:13:02;;;;;;;3.60;3.03;;;3.70;54.20;4.00;97572.00;;;;5072879;28;20438;-87
2022/03/01 08:15:30;;;;;;;5.97;3.53;;;3.80;54.10;4.20;97577.00;;;;5071002;28;20713;-89
2022/03/01 08:17:59;;;;;;;4.17;3.33;;;4.00;54.20;4.40;97580.00;;;;5073459;28;20231;-88
2022/03/01 08:20:28;;;;;;;4.50;3.50;;;4.10;54.20;4.60;97580.00;;;;5070895;28;20216;-87
2022/03/01 08:22:55;;;;;;;3.57;3.27;;;5.10;54.60;4.80;97581.00;;;;5076792;28;20643;-88
2022/03/01 08:25:22;;;;;;;4.80;3.30;;;4.50;54.20;5.00;97591.00;;;;5086759;28;20191;-88
2022/03/01 08:27:50;;;;;;;5.23;3.37;;;4.70;54.10;5.20;97585.00;;;;5057582;28;20278;-88
2022/03/01 08:30:17;;;;;;;4.77;3.40;;;4.80;54.00;5.40;97601.00;;;;5065406;22;20296;-86
2022/03/01 08:32:46;;;;;;;4.27;3.07;;;5.00;53.90;5.60;97598.00;;;;5032188;28;20368;-86
2022/03/01 08:35:13;;;;;;;5.00;3.30;;;5.20;53.80;5.80;97605.00;;;;5038431;28;20833;-86
2022/03/01 08:37:42;;;;;;;4.87;3.50;;;5.40;53.70;6.10;97611.00;;;;5039794;28;20239;-86
2022/03/01 08:40:12;;;;;;;4.43;2.93;;;5.60;53.40;6.30;97606.00;;;;5043000;28;20637;-87
2022/03/01 08:42:39;;;;;;;6.47;3.40;;;5.80;53.00;6.50;97611.00;;;;5026277;28;20194;-87
2022/03/01 08:45:09;;;;;;;5.80;3.30;;;5.90;52.50;6.70;97595.00;;;;5016899;28;21006;-88
2022/03/01 08:47:37;;;;;;;3.90;3.07;;;6.10;52.60;6.90;97596.00;;;;5016786;28;20198;-87
2022/03/01 08:50:06;;;;;;;4.00;3.10;;;6.30;52.60;7.10;97594.00;;;;5016518;28;20305;-87
2022/03/01 08:52:33;;;;;;;6.10;3.10;;;6.50;52.30;7.30;97594.00;;;;5015891;28;20284;-87
2022/03/01 08:55:07;;;;;;;3.23;2.93;;;6.70;52.20;7.50;97604.00;;;;5016502;28;20292;-87
2022/03/01 08:57:34;;;;;;;6.37;3.27;;;6.90;52.10;7.80;97610.00;;;;5016409;28;20610;-87
2022/03/01 09:00:03;;;;;;;5.13;3.00;;;7.10;52.00;8.00;97606.00;;;;5015813;28;20230;-88
2022/03/01 09:02:30;;;;;;;4.07;3.13;;;7.50;51.90;8.20;97608.00;;;;5016670;28;20201;-88
2022/03/01 09:04:57;;;;;;;4.10;3.27;;;8.50;52.00;8.50;97595.00;;;;5015838;28;20265;-87
2022/03/01 09:07:25;;;;;;;3.23;2.77;;;8.70;51.80;8.80;97610.00;;;;5016245;28;20583;-87
2022/03/01 09:09:52;;;;;;;4.67;2.40;;;7.90;51.30;9.10;97589.00;;;;5016118;28;20583;-87
2022/03/01 09:12:21;;;;;;;4.30;2.97;;;8.20;51.20;9.40;97594.00;;;;5015956;28;20674;-87
2022/03/01 09:14:56;;;;;;;4.20;3.03;;;8.50;50.60;9.60;97605.00;;;;5015940;28;20206;-87
2022/03/01 09:17:24;;;;;;;2.87;2.63;;;8.80;50.70;9.90;97596.00;;;;5014527;28;20202;-87
2022/03/01 09:19:51;;;;;;;4.90;2.87;;;9.30;51.20;10.20;97606.00;;;;5012432;28;20304;-89
2022/03/01 09:22:18;;;;;;;2.77;2.33;;;9.80;51.10;10.40;97587.00;;;;5015645;28;20928;-89
2022/03/01 09:24:46;;;;;;;3.10;2.57;;;10.30;50.40;10.70;97567.00;;;;5015862;28;20222;-88
2022/03/01 09:27:14;;;;;;;4.20;2.80;;;11.70;50.50;10.90;97606.00;;;;5016302;28;20257;-88
2022/03/01 09:29:44;;;;;;;3.23;2.50;;;11.30;48.60;11.20;97593.00;;;;5015936;28;20674;-88
2022/03/01 09:32:11;;;;;;;2.40;2.20;;;11.80;48.00;11.40;97594.00;;;;5015652;28;20657;-88
2022/03/01 09:34:38;;;;;;;4.30;2.57;;;12.20;47.70;11.60;97582.00;;;;5015609;28;20248;-87
2022/03/01 09:37:05;;;;;;;4.07;2.80;;;12.70;46.20;11.90;97596.00;;;;5015172;28;20293;-88
2022/03/01 09:39:32;;;;;;;3.10;2.80;;;13.00;45.50;12.00;97581.00;;;;5016045;28;20196;-88
2022/03/01 09:42:01;;;;;;;3.53;2.40;;;13.30;45.60;12.30;97590.00;;;;5015739;28;20198;-89
2022/03/01 09:44:29;;;;;;;3.57;2.40;;;13.60;45.10;12.50;97585.00;;;;5015818;28;20650;-88
2022/03/01 09:46:58;;;;;;;2.67;2.30;;;14.80;44.80;12.70;97590.00;;;;5015452;28;20290;-88
2022/03/01 09:49:25;;;;;;;3.67;3.00;;;14.20;44.10;12.80;97586.00;;;;5015473;28;20190;-88
2022/03/01 09:51:53;;;;;;;3.77;2.70;;;14.40;43.30;12.90;97572.00;;;;5015158;28;20644;-89
2022/03/01 09:54:22;;;;;;;3.27;2.70;;;14.50;42.50;13.00;97573.00;;;;5015387;28;20740;-89
2022/03/01 09:56:50;;;;;;;2.67;2.40;;;14.70;42.50;13.00;97573.00;;;;5015137;28;20232;-89
2022/03/01 09:59:18;;;;;;;2.40;2.20;;;14.70;41.30;13.10;97575.00;;;;5015565;28;20252;-88
2022/03/01 10:01:49;;;;;;;2.63;2.43;;;14.70;39.50;13.10;97568.00;;;;5014992;28;20190;-89
2022/03/01 10:04:20;;;;;;;4.37;2.87;;;14.60;40.20;13.10;97582.00;;;;5014776;28;20221;-87
2022/03/01 10:06:50;;;;;;;2.93;2.63;;;14.80;40.30;13.20;97587.00;;;;5015715;28;20289;-87
2022/03/01 10:09:20;;;;;;;3.53;2.70;;;14.30;40.00;13.20;97588.00;;;;5016726;28;20227;-86
2022/03/01 10:11:49;;;;;;;4.10;2.93;;;14.10;38.60;13.10;97589.00;;;;5014918;28;20700;-88
2022/03/01 10:14:28;;;;;;;2.57;2.37;;;13.90;38.50;13.00;97566.00;;;;5015026;28;20285;-87
2022/03/01 10:16:55;;;;;;;2.90;2.23;;;14.10;39.60;13.00;97577.00;;;;5014589;28;20202;-87
2022/03/01 10:19:26;;;;;;;3.23;2.23;;;13.90;40.20;13.00;97568.00;;;;5014610;28;20660;-88
2022/03/01 10:22:00;;;;;;;4.70;2.70;;;14.00;40.80;13.10;97571.00;;;;5008999;28;20673;-87
2022/03/01 10:24:28;;;;;;;3.27;2.70;;;14.00;40.80;13.10;97555.00;;;;5009844;28;20271;-88
2022/03/01 10:26:58;;;;;;;2.90;2.60;;;14.10;40.50;13.20;97574.00;;;;5014504;28;20290;-88
2022/03/01 10:29:28;;;;;;;3.50;2.30;;;14.30;40.60;13.20;97574.00;;;;5014628;28;20198;-88
2022/03/01 10:31:59;;;;;;;3.07;2.40;;;14.50;40.20;13.30;97577.00;;;;5014236;28;20186;-87
2022/03/01 10:34:28;;;;;;;3.93;2.83;;;14.60;40.20;13.30;97561.00;;;;5013832;28;20206;-88
2022/03/01 10:36:55;;;;;;;3.33;2.23;;;14.80;39.50;13.40;97580.00;;;;5009616;28;20285;-88
2022/03/01 10:39:28;;;;;;;3.07;2.30;;;15.20;39.60;13.50;97573.00;;;;5014445;28;20232;-88
2022/03/01 10:41:56;;;;;;;4.43;2.30;;;15.10;38.90;13.50;97575.00;;;;5014089;28;20190;-88
2022/03/01 10:44:27;;;;;;;2.53;2.33;;;15.20;39.50;13.60;97564.00;;;;5005670;28;20302;-88
2022/03/01 10:46:57;;;;;;;2.67;2.37;;;15.30;38.50;13.70;97564.00;;;;5006641;28;20281;-88
2022/03/01 10:49:28;;;;;;;2.43;2.23;;;15.60;38.30;13.70;97560.00;;;;5015653;28;20194;-89
2022/03/01 10:52:03;;;;;;;2.20;1.93;;;16.00;38.30;13.90;97538.00;;;;5014703;28;20188;-88
2022/03/01 10:54:33;;;;;;;3.77;2.20;;;15.40;37.70;13.90;97533.00;;;;5013950;28;20209;-87
2022/03/01 10:57:06;;;;;;;2.53;2.33;;;15.80;37.20;13.90;97529.00;;;;5012668;28;20226;-87
2022/03/01 10:59:35;;;;;;;3.27;2.40;;;15.40;37.20;13.90;97528.00;;;;5013300;28;20642;-88
2022/03/01 11:02:05;;;;;;;2.60;2.40;;;15.20;36.20;13.90;97502.00;;;;5014744;28;20234;-87
2022/03/01 11:04:36;;;;;;;2.00;1.90;;;15.10;35.30;13.80;97513.00;;;;5017446;28;20217;-87
2022/03/01 11:07:06;;;;;;;2.30;2.10;;;14.70;34.90;13.70;97522.00;;;;5016308;28;20285;-88
2022/03/01 11:09:34;;;;;;;2.47;2.20;;;15.00;35.80;13.60;97515.00;;;;5012802;28;20237;-87
2022/03/01 11:12:05;;;;;;;2.47;2.10;;;14.40;35.40;13.40;97509.00;;;;5011494;28;20194;-87